sensor_id;sensor_type;location;lat;lon;timestamp;temperature;humidity
16118;DHT22;8163;50.118;5.342;2022-12-07T00:01:42;2.80;99.90
16118;DHT22;8163;50.118;5.342;2022-12-07T00:04:11;2.80;99.90
16118;DHT22;8163;50.118;5.342;2022-12-07T00:06:41;2.80;99.90
16118;DHT22;8163;50.118;5.342;2022-12-07T00:09:11;2.80;99.90
16118;DHT22;8163;50.118;5.342;2022-12-07T00:11:38;2.80;99.90
16118;DHT22;8163;50.118;5.342;2022-12-07T00:14:07;2.80;99.90
16118;DHT22;8163;50.118;5.342;2022-12-07T00:16:34;2.80;99.90
16118;DHT22;8163;50.118;5.342;2022-12-07T00:19:03;2.80;99.90
16118;DHT22;8163;50.118;5.342;2022-12-07T00:21:32;2.80;99.90
16118;DHT22;8163;50.118;5.342;2022-12-07T00:24:02;2.80;99.90
16118;DHT22;8163;50.118;5.342;2022-12-07T00:26:31;2.80;99.90
16118;DHT22;8163;50.118;5.342;2022-12-07T00:29:00;2.80;99.90
16118;DHT22;8163;50.118;5.342;2022-12-07T00:31:30;2.80;99.90
16118;DHT22;8163;50.118;5.342;2022-12-07T00:33:59;2.80;99.90
16118;DHT22;8163;50.118;5.342;2022-12-07T00:36:26;2.80;99.90
16118;DHT22;8163;50.118;5.342;2022-12-07T00:38:54;2.90;99.90
16118;DHT22;8163;50.118;5.342;2022-12-07T00:41:23;2.90;99.90
16118;DHT22;8163;50.118;5.342;2022-12-07T00:43:51;2.90;99.90
16118;DHT22;8163;50.118;5.342;2022-12-07T00:46:19;2.90;99.90
16118;DHT22;8163;50.118;5.342;2022-12-07T00:48:47;2.90;99.90
16118;DHT22;8163;50.118;5.342;2022-12-07T00:51:16;2.80;99.90
16118;DHT22;8163;50.118;5.342;2022-12-07T00:53:44;2.90;99.90
16118;DHT22;8163;50.118;5.342;2022-12-07T00:56:12;2.80;99.90
16118;DHT22;8163;50.118;5.342;2022-12-07T00:58:42;2.90;99.90
16118;DHT22;8163;50.118;5.342;2022-12-07T01:01:10;2.90;99.90
16118;DHT22;8163;50.118;5.342;2022-12-07T01:03:37;2.90;99.90
16118;DHT22;8163;50.118;5.342;2022-12-07T01:06:06;2.80;99.90
16118;DHT22;8163;50.118;5.342;2022-12-07T01:08:33;2.90;99.90
16118;DHT22;8163;50.118;5.342;2022-12-07T01:11:02;2.90;99.90
16118;DHT22;8163;50.118;5.342;2022-12-07T01:13:30;2.80;99.90
16118;DHT22;8163;50.118;5.342;2022-12-07T01:16:02;2.90;99.90
16118;DHT22;8163;50.118;5.342;2022-12-07T01:18:31;2.90;99.90
16118;DHT22;8163;50.118;5.342;2022-12-07T01:21:00;2.90;99.90
16118;DHT22;8163;50.118;5.342;2022-12-07T01:23:28;2.90;99.90
16118;DHT22;8163;50.118;5.342;2022-12-07T01:25:56;2.90;99.90
16118;DHT22;8163;50.118;5.342;2022-12-07T01:28:25;2.90;99.90
16118;DHT22;8163;50.118;5.342;2022-12-07T01:30:56;2.90;99.90
16118;DHT22;8163;50.118;5.342;2022-12-07T01:33:26;2.90;99.90
16118;DHT22;8163;50.118;5.342;2022-12-07T01:35:54;2.90;99.90
16118;DHT22;8163;50.118;5.342;2022-12-07T01:38:21;2.90;99.90
16118;DHT22;8163;50.118;5.342;2022-12-07T01:40:54;2.90;99.90
16118;DHT22;8163;50.118;5.342;2022-12-07T01:43:23;2.90;99.90
16118;DHT22;8163;50.118;5.342;2022-12-07T01:45:51;2.90;99.90
16118;DHT22;8163;50.118;5.342;2022-12-07T01:48:25;2.90;99.90
16118;DHT22;8163;50.118;5.342;2022-12-07T01:50:54;2.90;99.90
16118;DHT22;8163;50.118;5.342;2022-12-07T01:53:26;2.90;99.90
16118;DHT22;8163;50.118;5.342;2022-12-07T01:55:56;2.90;99.90
16118;DHT22;8163;50.118;5.342;2022-12-07T01:58:24;2.90;99.90
16118;DHT22;8163;50.118;5.342;2022-12-07T02:00:51;2.90;99.90
16118;DHT22;8163;50.118;5.342;2022-12-07T02:03:21;2.90;99.90
16118;DHT22;8163;50.118;5.342;2022-12-07T02:05:50;2.90;99.90
16118;DHT22;8163;50.118;5.342;2022-12-07T02:08:18;2.90;99.90
16118;DHT22;8163;50.118;5.342;2022-12-07T02:10:45;2.90;99.90
16118;DHT22;8163;50.118;5.342;2022-12-07T02:13:14;2.90;99.90
16118;DHT22;8163;50.118;5.342;2022-12-07T02:15:52;2.90;99.90
16118;DHT22;8163;50.118;5.342;2022-12-07T02:18:27;3.00;99.90
16118;DHT22;8163;50.118;5.342;2022-12-07T02:21:05;2.90;99.90
16118;DHT22;8163;50.118;5.342;2022-12-07T02:23:52;3.00;99.90
16118;DHT22;8163;50.118;5.342;2022-12-07T02:26:47;3.00;99.90
16118;DHT22;8163;50.118;5.342;2022-12-07T02:29:26;2.90;99.90
16118;DHT22;8163;50.118;5.342;2022-12-07T02:31:59;3.00;99.90
16118;DHT22;8163;50.118;5.342;2022-12-07T02:34:36;2.90;99.90
16118;DHT22;8163;50.118;5.342;2022-12-07T02:37:10;3.00;99.90
16118;DHT22;8163;50.118;5.342;2022-12-07T02:39:44;3.00;99.90
16118;DHT22;8163;50.118;5.342;2022-12-07T02:42:17;3.00;99.90
16118;DHT22;8163;50.118;5.342;2022-12-07T02:44:47;3.00;99.90
16118;DHT22;8163;50.118;5.342;2022-12-07T02:47:16;2.90;99.90
16118;DHT22;8163;50.118;5.342;2022-12-07T02:49:45;3.00;99.90
16118;DHT22;8163;50.118;5.342;2022-12-07T02:52:12;3.00;99.90
16118;DHT22;8163;50.118;5.342;2022-12-07T02:54:39;3.00;99.90
16118;DHT22;8163;50.118;5.342;2022-12-07T02:57:15;3.00;99.90
16118;DHT22;8163;50.118;5.342;2022-12-07T02:59:59;3.00;99.90
16118;DHT22;8163;50.118;5.342;2022-12-07T03:02:35;2.90;99.90
16118;DHT22;8163;50.118;5.342;2022-12-07T03:05:17;2.90;99.90
16118;DHT22;8163;50.118;5.342;2022-12-07T03:07:54;2.90;99.90
16118;DHT22;8163;50.118;5.342;2022-12-07T03:10:31;2.90;99.90
16118;DHT22;8163;50.118;5.342;2022-12-07T03:13:05;3.00;99.90
16118;DHT22;8163;50.118;5.342;2022-12-07T03:15:39;3.00;99.90
16118;DHT22;8163;50.118;5.342;2022-12-07T03:18:09;2.90;99.90
16118;DHT22;8163;50.118;5.342;2022-12-07T03:20:39;2.90;99.90
16118;DHT22;8163;50.118;5.342;2022-12-07T03:23:10;2.90;99.90
16118;DHT22;8163;50.118;5.342;2022-12-07T03:25:40;2.90;99.90
16118;DHT22;8163;50.118;5.342;2022-12-07T03:28:10;3.00;99.90
16118;DHT22;8163;50.118;5.342;2022-12-07T03:30:46;2.90;99.90
16118;DHT22;8163;50.118;5.342;2022-12-07T03:33:18;2.90;99.90
16118;DHT22;8163;50.118;5.342;2022-12-07T03:35:52;2.90;99.90
16118;DHT22;8163;50.118;5.342;2022-12-07T03:38:23;2.90;99.90
16118;DHT22;8163;50.118;5.342;2022-12-07T03:40:56;3.00;99.90
16118;DHT22;8163;50.118;5.342;2022-12-07T03:43:24;3.00;99.90
16118;DHT22;8163;50.118;5.342;2022-12-07T03:46:00;3.00;99.90
16118;DHT22;8163;50.118;5.342;2022-12-07T03:48:33;2.90;99.90
16118;DHT22;8163;50.118;5.342;2022-12-07T03:51:07;3.00;99.90
16118;DHT22;8163;50.118;5.342;2022-12-07T03:53:43;3.00;99.90
16118;DHT22;8163;50.118;5.342;2022-12-07T03:56:12;3.00;99.90
16118;DHT22;8163;50.118;5.342;2022-12-07T03:58:40;3.00;99.90
16118;DHT22;8163;50.118;5.342;2022-12-07T04:01:09;3.00;99.90
16118;DHT22;8163;50.118;5.342;2022-12-07T04:03:36;3.00;99.90
16118;DHT22;8163;50.118;5.342;2022-12-07T04:06:04;3.00;99.90
16118;DHT22;8163;50.118;5.342;2022-12-07T04:08:31;3.00;99.90
16118;DHT22;8163;50.118;5.342;2022-12-07T04:10:58;3.00;99.90
16118;DHT22;8163;50.118;5.342;2022-12-07T04:13:25;3.00;99.90
16118;DHT22;8163;50.118;5.342;2022-12-07T04:15:52;3.00;99.90
16118;DHT22;8163;50.118;5.342;2022-12-07T04:18:20;3.00;99.90
16118;DHT22;8163;50.118;5.342;2022-12-07T04:20:47;3.00;99.90
16118;DHT22;8163;50.118;5.342;2022-12-07T04:23:14;3.00;99.90
16118;DHT22;8163;50.118;5.342;2022-12-07T04:25:41;3.00;99.90
16118;DHT22;8163;50.118;5.342;2022-12-07T04:28:08;3.00;99.90
16118;DHT22;8163;50.118;5.342;2022-12-07T04:30:35;3.00;99.90
16118;DHT22;8163;50.118;5.342;2022-12-07T04:33:02;3.00;99.90
16118;DHT22;8163;50.118;5.342;2022-12-07T04:35:31;3.00;99.90
16118;DHT22;8163;50.118;5.342;2022-12-07T04:37:58;3.00;99.90
16118;DHT22;8163;50.118;5.342;2022-12-07T04:40:25;3.00;99.90
16118;DHT22;8163;50.118;5.342;2022-12-07T04:42:52;3.00;99.90
16118;DHT22;8163;50.118;5.342;2022-12-07T04:45:19;3.00;99.90
16118;DHT22;8163;50.118;5.342;2022-12-07T04:47:46;3.00;99.90
16118;DHT22;8163;50.118;5.342;2022-12-07T04:50:13;3.00;99.90
16118;DHT22;8163;50.118;5.342;2022-12-07T04:52:41;3.00;99.90
16118;DHT22;8163;50.118;5.342;2022-12-07T04:55:08;3.00;99.90
16118;DHT22;8163;50.118;5.342;2022-12-07T04:57:35;3.00;99.90
16118;DHT22;8163;50.118;5.342;2022-12-07T05:00:03;3.00;99.90
16118;DHT22;8163;50.118;5.342;2022-12-07T05:02:30;3.00;99.90
16118;DHT22;8163;50.118;5.342;2022-12-07T05:04:57;3.10;99.90
16118;DHT22;8163;50.118;5.342;2022-12-07T05:07:24;3.00;99.90
16118;DHT22;8163;50.118;5.342;2022-12-07T05:09:52;3.10;99.90
16118;DHT22;8163;50.118;5.342;2022-12-07T05:12:20;3.10;99.90
16118;DHT22;8163;50.118;5.342;2022-12-07T05:14:46;3.10;99.90
16118;DHT22;8163;50.118;5.342;2022-12-07T05:17:13;3.10;99.90
16118;DHT22;8163;50.118;5.342;2022-12-07T05:19:40;3.10;99.90
16118;DHT22;8163;50.118;5.342;2022-12-07T05:22:07;3.10;99.90
16118;DHT22;8163;50.118;5.342;2022-12-07T05:24:35;3.10;99.90
16118;DHT22;8163;50.118;5.342;2022-12-07T05:27:03;3.10;99.90
16118;DHT22;8163;50.118;5.342;2022-12-07T05:29:30;3.10;99.90
16118;DHT22;8163;50.118;5.342;2022-12-07T05:31:57;3.10;99.90
16118;DHT22;8163;50.118;5.342;2022-12-07T05:34:25;3.10;99.90
16118;DHT22;8163;50.118;5.342;2022-12-07T05:36:52;3.10;99.90
16118;DHT22;8163;50.118;5.342;2022-12-07T05:39:19;3.10;99.90
16118;DHT22;8163;50.118;5.342;2022-12-07T05:41:46;3.10;99.90
16118;DHT22;8163;50.118;5.342;2022-12-07T05:44:32;3.10;99.90
16118;DHT22;8163;50.118;5.342;2022-12-07T05:46:58;3.10;99.90
16118;DHT22;8163;50.118;5.342;2022-12-07T05:49:26;3.10;99.90
16118;DHT22;8163;50.118;5.342;2022-12-07T05:51:52;3.10;99.90
16118;DHT22;8163;50.118;5.342;2022-12-07T05:54:20;3.10;99.90
16118;DHT22;8163;50.118;5.342;2022-12-07T05:56:47;3.10;99.90
16118;DHT22;8163;50.118;5.342;2022-12-07T05:59:14;3.10;99.90
16118;DHT22;8163;50.118;5.342;2022-12-07T06:01:51;3.10;99.90
16118;DHT22;8163;50.118;5.342;2022-12-07T06:04:19;3.10;99.90
16118;DHT22;8163;50.118;5.342;2022-12-07T06:06:46;3.10;99.90
16118;DHT22;8163;50.118;5.342;2022-12-07T06:09:13;3.10;99.90
16118;DHT22;8163;50.118;5.342;2022-12-07T06:11:41;3.10;99.90
16118;DHT22;8163;50.118;5.342;2022-12-07T06:14:26;3.10;99.90
16118;DHT22;8163;50.118;5.342;2022-12-07T06:16:54;3.20;99.90
16118;DHT22;8163;50.118;5.342;2022-12-07T06:19:21;3.10;99.90
16118;DHT22;8163;50.118;5.342;2022-12-07T06:21:48;3.10;99.90
16118;DHT22;8163;50.118;5.342;2022-12-07T06:24:16;3.10;99.90
16118;DHT22;8163;50.118;5.342;2022-12-07T06:26:44;3.10;99.90
16118;DHT22;8163;50.118;5.342;2022-12-07T06:29:11;3.20;99.90
16118;DHT22;8163;50.118;5.342;2022-12-07T06:31:39;3.10;99.90
16118;DHT22;8163;50.118;5.342;2022-12-07T06:34:10;3.10;99.90
16118;DHT22;8163;50.118;5.342;2022-12-07T06:36:37;3.10;99.90
16118;DHT22;8163;50.118;5.342;2022-12-07T06:39:05;3.10;99.90
16118;DHT22;8163;50.118;5.342;2022-12-07T06:41:33;3.10;99.90
16118;DHT22;8163;50.118;5.342;2022-12-07T06:44:00;3.10;99.90
16118;DHT22;8163;50.118;5.342;2022-12-07T06:46:27;3.10;99.90
16118;DHT22;8163;50.118;5.342;2022-12-07T06:48:54;3.10;99.90
16118;DHT22;8163;50.118;5.342;2022-12-07T06:51:22;3.20;99.90
16118;DHT22;8163;50.118;5.342;2022-12-07T06:53:50;3.10;99.90
16118;DHT22;8163;50.118;5.342;2022-12-07T06:56:17;3.10;99.90
16118;DHT22;8163;50.118;5.342;2022-12-07T06:58:44;3.10;99.90
16118;DHT22;8163;50.118;5.342;2022-12-07T07:01:11;3.20;99.90
16118;DHT22;8163;50.118;5.342;2022-12-07T07:03:39;3.20;99.90
16118;DHT22;8163;50.118;5.342;2022-12-07T07:06:07;3.20;99.90
16118;DHT22;8163;50.118;5.342;2022-12-07T07:08:36;3.10;99.90
16118;DHT22;8163;50.118;5.342;2022-12-07T07:11:03;3.20;99.90
16118;DHT22;8163;50.118;5.342;2022-12-07T07:13:30;3.20;99.90
16118;DHT22;8163;50.118;5.342;2022-12-07T07:15:58;3.20;99.90
16118;DHT22;8163;50.118;5.342;2022-12-07T07:18:25;3.20;99.90
16118;DHT22;8163;50.118;5.342;2022-12-07T07:20:52;3.20;99.90
16118;DHT22;8163;50.118;5.342;2022-12-07T07:23:20;3.20;99.90
16118;DHT22;8163;50.118;5.342;2022-12-07T07:25:48;3.20;99.90
16118;DHT22;8163;50.118;5.342;2022-12-07T07:28:16;3.20;99.90
16118;DHT22;8163;50.118;5.342;2022-12-07T07:30:43;3.20;99.90
16118;DHT22;8163;50.118;5.342;2022-12-07T07:33:11;3.20;99.90
16118;DHT22;8163;50.118;5.342;2022-12-07T07:35:38;3.20;99.90
16118;DHT22;8163;50.118;5.342;2022-12-07T07:38:06;3.20;99.90
16118;DHT22;8163;50.118;5.342;2022-12-07T07:40:33;3.20;99.90
16118;DHT22;8163;50.118;5.342;2022-12-07T07:43:02;3.20;99.90
16118;DHT22;8163;50.118;5.342;2022-12-07T07:45:29;3.20;99.90
16118;DHT22;8163;50.118;5.342;2022-12-07T07:47:56;3.20;99.90
16118;DHT22;8163;50.118;5.342;2022-12-07T07:50:23;3.20;99.90
16118;DHT22;8163;50.118;5.342;2022-12-07T07:52:51;3.20;99.90
16118;DHT22;8163;50.118;5.342;2022-12-07T07:55:19;3.20;99.90
16118;DHT22;8163;50.118;5.342;2022-12-07T07:57:46;3.20;99.90
16118;DHT22;8163;50.118;5.342;2022-12-07T08:00:15;3.30;99.90
16118;DHT22;8163;50.118;5.342;2022-12-07T08:02:43;3.30;99.90
16118;DHT22;8163;50.118;5.342;2022-12-07T08:05:12;3.20;99.90
16118;DHT22;8163;50.118;5.342;2022-12-07T08:07:40;3.30;99.90
16118;DHT22;8163;50.118;5.342;2022-12-07T08:10:08;3.30;99.90
16118;DHT22;8163;50.118;5.342;2022-12-07T08:12:37;3.30;99.90
16118;DHT22;8163;50.118;5.342;2022-12-07T08:15:27;3.30;99.90
16118;DHT22;8163;50.118;5.342;2022-12-07T08:17:54;3.40;99.90
16118;DHT22;8163;50.118;5.342;2022-12-07T08:20:22;3.40;99.90
16118;DHT22;8163;50.118;5.342;2022-12-07T08:22:49;3.40;99.90
16118;DHT22;8163;50.118;5.342;2022-12-07T08:25:16;3.40;99.90
16118;DHT22;8163;50.118;5.342;2022-12-07T08:27:43;3.40;99.90
16118;DHT22;8163;50.118;5.342;2022-12-07T08:30:10;3.40;99.90
16118;DHT22;8163;50.118;5.342;2022-12-07T08:32:39;3.40;99.90
16118;DHT22;8163;50.118;5.342;2022-12-07T08:35:07;3.40;99.90
16118;DHT22;8163;50.118;5.342;2022-12-07T08:37:35;3.40;99.90
16118;DHT22;8163;50.118;5.342;2022-12-07T08:40:02;3.50;99.90
16118;DHT22;8163;50.118;5.342;2022-12-07T08:42:31;3.50;99.90
16118;DHT22;8163;50.118;5.342;2022-12-07T08:45:05;3.60;99.90
16118;DHT22;8163;50.118;5.342;2022-12-07T08:47:33;3.60;99.90
16118;DHT22;8163;50.118;5.342;2022-12-07T08:50:02;3.60;99.90
16118;DHT22;8163;50.118;5.342;2022-12-07T08:52:30;3.50;99.90
16118;DHT22;8163;50.118;5.342;2022-12-07T08:54:58;3.50;99.90
16118;DHT22;8163;50.118;5.342;2022-12-07T08:57:27;3.50;99.90
16118;DHT22;8163;50.118;5.342;2022-12-07T08:59:55;3.50;99.90
16118;DHT22;8163;50.118;5.342;2022-12-07T09:02:22;3.40;99.90
16118;DHT22;8163;50.118;5.342;2022-12-07T09:04:49;3.40;99.90
16118;DHT22;8163;50.118;5.342;2022-12-07T09:07:17;3.40;99.90
16118;DHT22;8163;50.118;5.342;2022-12-07T09:09:44;3.40;99.90
16118;DHT22;8163;50.118;5.342;2022-12-07T09:12:12;3.40;99.90
16118;DHT22;8163;50.118;5.342;2022-12-07T09:14:39;3.50;99.90
16118;DHT22;8163;50.118;5.342;2022-12-07T09:17:07;3.50;99.90
16118;DHT22;8163;50.118;5.342;2022-12-07T09:19:34;3.50;99.90
16118;DHT22;8163;50.118;5.342;2022-12-07T09:22:02;3.50;99.90
16118;DHT22;8163;50.118;5.342;2022-12-07T09:24:32;3.60;99.90
16118;DHT22;8163;50.118;5.342;2022-12-07T09:26:59;3.60;99.90
16118;DHT22;8163;50.118;5.342;2022-12-07T09:29:26;3.60;99.90
16118;DHT22;8163;50.118;5.342;2022-12-07T09:31:53;3.60;99.90
16118;DHT22;8163;50.118;5.342;2022-12-07T09:34:20;3.60;99.90
16118;DHT22;8163;50.118;5.342;2022-12-07T09:36:47;3.60;99.90
16118;DHT22;8163;50.118;5.342;2022-12-07T09:39:14;3.60;99.90
16118;DHT22;8163;50.118;5.342;2022-12-07T09:41:44;3.60;99.90
16118;DHT22;8163;50.118;5.342;2022-12-07T09:44:14;3.60;99.90
16118;DHT22;8163;50.118;5.342;2022-12-07T09:46:43;3.60;99.90
16118;DHT22;8163;50.118;5.342;2022-12-07T09:49:14;3.70;99.90
16118;DHT22;8163;50.118;5.342;2022-12-07T09:51:43;3.60;99.90
16118;DHT22;8163;50.118;5.342;2022-12-07T09:54:13;3.70;99.90
16118;DHT22;8163;50.118;5.342;2022-12-07T09:56:40;3.60;99.90
16118;DHT22;8163;50.118;5.342;2022-12-07T09:59:15;3.70;99.90
16118;DHT22;8163;50.118;5.342;2022-12-07T10:01:46;3.70;99.90
16118;DHT22;8163;50.118;5.342;2022-12-07T10:04:16;3.70;99.90
16118;DHT22;8163;50.118;5.342;2022-12-07T10:06:44;3.70;99.90
16118;DHT22;8163;50.118;5.342;2022-12-07T10:09:15;3.70;99.90
16118;DHT22;8163;50.118;5.342;2022-12-07T10:11:59;3.60;99.90
16118;DHT22;8163;50.118;5.342;2022-12-07T10:14:29;3.70;99.90
16118;DHT22;8163;50.118;5.342;2022-12-07T10:16:57;3.70;99.90
16118;DHT22;8163;50.118;5.342;2022-12-07T10:19:27;3.70;99.90
16118;DHT22;8163;50.118;5.342;2022-12-07T10:22:09;3.70;99.90
16118;DHT22;8163;50.118;5.342;2022-12-07T10:24:36;3.70;99.90
16118;DHT22;8163;50.118;5.342;2022-12-07T10:27:09;3.70;99.90
16118;DHT22;8163;50.118;5.342;2022-12-07T10:29:48;3.70;99.90
16118;DHT22;8163;50.118;5.342;2022-12-07T10:32:29;3.70;99.90
16118;DHT22;8163;50.118;5.342;2022-12-07T10:35:19;3.80;99.90
16118;DHT22;8163;50.118;5.342;2022-12-07T10:37:48;3.80;99.90
16118;DHT22;8163;50.118;5.342;2022-12-07T10:40:31;3.90;99.90
16118;DHT22;8163;50.118;5.342;2022-12-07T10:43:14;3.90;99.90
16118;DHT22;8163;50.118;5.342;2022-12-07T10:49:04;4.10;99.90
16118;DHT22;8163;50.118;5.342;2022-12-07T10:51:40;4.10;99.90
16118;DHT22;8163;50.118;5.342;2022-12-07T10:54:16;4.10;99.90
16118;DHT22;8163;50.118;5.342;2022-12-07T10:57:11;4.10;99.90
16118;DHT22;8163;50.118;5.342;2022-12-07T10:59:57;4.10;99.90
16118;DHT22;8163;50.118;5.342;2022-12-07T11:02:40;4.10;99.90
16118;DHT22;8163;50.118;5.342;2022-12-07T11:05:17;4.10;99.90
16118;DHT22;8163;50.118;5.342;2022-12-07T11:07:52;4.00;99.90
16118;DHT22;8163;50.118;5.342;2022-12-07T11:10:27;4.00;99.90
16118;DHT22;8163;50.118;5.342;2022-12-07T11:13:11;4.00;99.90
16118;DHT22;8163;50.118;5.342;2022-12-07T11:15:52;4.00;99.90
16118;DHT22;8163;50.118;5.342;2022-12-07T11:18:27;4.00;99.90
16118;DHT22;8163;50.118;5.342;2022-12-07T11:21:07;4.10;99.90
16118;DHT22;8163;50.118;5.342;2022-12-07T11:23:45;4.10;99.90
16118;DHT22;8163;50.118;5.342;2022-12-07T11:26:18;4.10;99.90
16118;DHT22;8163;50.118;5.342;2022-12-07T11:29:06;4.10;99.90
16118;DHT22;8163;50.118;5.342;2022-12-07T11:31:41;4.10;99.90
16118;DHT22;8163;50.118;5.342;2022-12-07T11:34:20;4.10;99.90
16118;DHT22;8163;50.118;5.342;2022-12-07T11:36:53;4.10;99.90
16118;DHT22;8163;50.118;5.342;2022-12-07T11:39:26;4.10;99.90
16118;DHT22;8163;50.118;5.342;2022-12-07T11:42:00;4.10;99.90
16118;DHT22;8163;50.118;5.342;2022-12-07T11:44:32;4.20;99.90
16118;DHT22;8163;50.118;5.342;2022-12-07T11:47:04;4.20;99.90
16118;DHT22;8163;50.118;5.342;2022-12-07T11:49:42;4.10;99.90
16118;DHT22;8163;50.118;5.342;2022-12-07T11:52:16;4.10;99.90
16118;DHT22;8163;50.118;5.342;2022-12-07T11:54:45;4.10;99.90
16118;DHT22;8163;50.118;5.342;2022-12-07T11:57:19;4.10;99.90
16118;DHT22;8163;50.118;5.342;2022-12-07T11:59:51;4.00;99.90
16118;DHT22;8163;50.118;5.342;2022-12-07T12:02:22;4.00;99.90
16118;DHT22;8163;50.118;5.342;2022-12-07T12:04:55;4.00;99.90
16118;DHT22;8163;50.118;5.342;2022-12-07T12:07:27;4.00;99.90
16118;DHT22;8163;50.118;5.342;2022-12-07T12:09:59;4.10;99.90
16118;DHT22;8163;50.118;5.342;2022-12-07T12:15:41;4.00;99.90
16118;DHT22;8163;50.118;5.342;2022-12-07T12:18:33;4.00;99.90
16118;DHT22;8163;50.118;5.342;2022-12-07T12:21:07;4.00;99.90
16118;DHT22;8163;50.118;5.342;2022-12-07T12:23:40;4.00;99.90
16118;DHT22;8163;50.118;5.342;2022-12-07T12:26:15;4.00;99.90
16118;DHT22;8163;50.118;5.342;2022-12-07T12:28:50;4.00;99.90
16118;DHT22;8163;50.118;5.342;2022-12-07T12:31:32;4.00;99.90
16118;DHT22;8163;50.118;5.342;2022-12-07T12:34:04;4.00;99.90
16118;DHT22;8163;50.118;5.342;2022-12-07T12:36:46;4.00;99.90
16118;DHT22;8163;50.118;5.342;2022-12-07T12:39:15;4.00;99.90
16118;DHT22;8163;50.118;5.342;2022-12-07T12:42:00;4.00;99.90
16118;DHT22;8163;50.118;5.342;2022-12-07T12:47:43;4.10;99.90
16118;DHT22;8163;50.118;5.342;2022-12-07T12:50:23;4.10;99.90
16118;DHT22;8163;50.118;5.342;2022-12-07T12:56:30;4.20;99.90
16118;DHT22;8163;50.118;5.342;2022-12-07T12:59:24;4.20;99.90
16118;DHT22;8163;50.118;5.342;2022-12-07T13:01:54;4.20;99.90
16118;DHT22;8163;50.118;5.342;2022-12-07T13:04:39;4.30;99.90
16118;DHT22;8163;50.118;5.342;2022-12-07T13:10:35;4.30;99.90
16118;DHT22;8163;50.118;5.342;2022-12-07T13:13:08;4.30;99.90
16118;DHT22;8163;50.118;5.342;2022-12-07T13:15:52;4.30;99.90
16118;DHT22;8163;50.118;5.342;2022-12-07T13:18:24;4.30;99.90
16118;DHT22;8163;50.118;5.342;2022-12-07T13:20:54;4.30;99.90
16118;DHT22;8163;50.118;5.342;2022-12-07T13:23:30;4.30;99.90
16118;DHT22;8163;50.118;5.342;2022-12-07T13:26:17;4.30;99.90
16118;DHT22;8163;50.118;5.342;2022-12-07T13:28:46;4.30;99.90
16118;DHT22;8163;50.118;5.342;2022-12-07T13:31:25;4.40;99.90
16118;DHT22;8163;50.118;5.342;2022-12-07T13:33:57;4.40;99.90
16118;DHT22;8163;50.118;5.342;2022-12-07T13:36:26;4.50;99.90
16118;DHT22;8163;50.118;5.342;2022-12-07T13:38:55;4.50;99.90
16118;DHT22;8163;50.118;5.342;2022-12-07T13:41:25;4.50;99.90
16118;DHT22;8163;50.118;5.342;2022-12-07T13:43:59;4.50;99.90
16118;DHT22;8163;50.118;5.342;2022-12-07T13:46:46;4.50;99.90
16118;DHT22;8163;50.118;5.342;2022-12-07T13:49:19;4.50;99.90
16118;DHT22;8163;50.118;5.342;2022-12-07T13:51:47;4.40;99.90
16118;DHT22;8163;50.118;5.342;2022-12-07T13:54:15;4.40;99.90
16118;DHT22;8163;50.118;5.342;2022-12-07T13:56:46;4.40;99.90
16118;DHT22;8163;50.118;5.342;2022-12-07T14:37:37;4.00;99.90
16118;DHT22;8163;50.118;5.342;2022-12-07T14:40:05;4.00;99.90
16118;DHT22;8163;50.118;5.342;2022-12-07T14:42:34;4.00;99.90
16118;DHT22;8163;50.118;5.342;2022-12-07T14:45:05;4.00;99.90
16118;DHT22;8163;50.118;5.342;2022-12-07T14:47:32;4.00;99.90
16118;DHT22;8163;50.118;5.342;2022-12-07T14:49:59;4.00;99.90
16118;DHT22;8163;50.118;5.342;2022-12-07T14:52:28;4.00;99.90
16118;DHT22;8163;50.118;5.342;2022-12-07T14:54:58;4.00;99.90
16118;DHT22;8163;50.118;5.342;2022-12-07T14:57:25;4.00;99.90
16118;DHT22;8163;50.118;5.342;2022-12-07T14:59:52;4.00;99.90
16118;DHT22;8163;50.118;5.342;2022-12-07T15:02:19;4.00;99.90
16118;DHT22;8163;50.118;5.342;2022-12-07T15:04:47;4.00;99.90
16118;DHT22;8163;50.118;5.342;2022-12-07T15:07:18;4.00;99.90
16118;DHT22;8163;50.118;5.342;2022-12-07T15:09:46;4.00;99.90
16118;DHT22;8163;50.118;5.342;2022-12-07T15:12:14;4.10;99.90
16118;DHT22;8163;50.118;5.342;2022-12-07T15:14:42;4.00;99.90
16118;DHT22;8163;50.118;5.342;2022-12-07T15:17:10;4.00;99.90
16118;DHT22;8163;50.118;5.342;2022-12-07T15:19:38;4.10;99.90
16118;DHT22;8163;50.118;5.342;2022-12-07T15:22:05;4.00;99.90
16118;DHT22;8163;50.118;5.342;2022-12-07T15:24:33;4.00;99.90
16118;DHT22;8163;50.118;5.342;2022-12-07T15:27:00;4.00;99.90
16118;DHT22;8163;50.118;5.342;2022-12-07T15:29:29;4.00;99.90
16118;DHT22;8163;50.118;5.342;2022-12-07T15:31:56;3.90;99.90
16118;DHT22;8163;50.118;5.342;2022-12-07T15:34:23;3.90;99.90
16118;DHT22;8163;50.118;5.342;2022-12-07T15:36:52;3.80;99.90
16118;DHT22;8163;50.118;5.342;2022-12-07T15:39:19;3.80;99.90
16118;DHT22;8163;50.118;5.342;2022-12-07T15:41:47;3.80;99.90
16118;DHT22;8163;50.118;5.342;2022-12-07T15:44:14;3.80;99.90
16118;DHT22;8163;50.118;5.342;2022-12-07T15:47:00;3.80;99.90
16118;DHT22;8163;50.118;5.342;2022-12-07T15:49:28;3.80;99.90
16118;DHT22;8163;50.118;5.342;2022-12-07T15:51:55;3.80;99.90
16118;DHT22;8163;50.118;5.342;2022-12-07T15:54:23;3.80;99.90
16118;DHT22;8163;50.118;5.342;2022-12-07T15:56:51;3.80;99.90
16118;DHT22;8163;50.118;5.342;2022-12-07T15:59:18;3.80;99.90
16118;DHT22;8163;50.118;5.342;2022-12-07T16:01:45;3.80;99.90
16118;DHT22;8163;50.118;5.342;2022-12-07T16:04:14;3.90;99.90
16118;DHT22;8163;50.118;5.342;2022-12-07T16:06:41;3.90;99.90
16118;DHT22;8163;50.118;5.342;2022-12-07T16:09:08;3.90;99.90
16118;DHT22;8163;50.118;5.342;2022-12-07T16:11:35;3.90;99.90
16118;DHT22;8163;50.118;5.342;2022-12-07T16:14:02;3.90;99.90
16118;DHT22;8163;50.118;5.342;2022-12-07T16:16:29;3.80;99.90
16118;DHT22;8163;50.118;5.342;2022-12-07T16:18:57;3.90;99.90
16118;DHT22;8163;50.118;5.342;2022-12-07T16:21:26;3.90;99.90
16118;DHT22;8163;50.118;5.342;2022-12-07T16:23:53;3.90;99.90
16118;DHT22;8163;50.118;5.342;2022-12-07T16:26:21;3.80;99.90
16118;DHT22;8163;50.118;5.342;2022-12-07T16:28:50;3.80;99.90
16118;DHT22;8163;50.118;5.342;2022-12-07T16:31:19;3.90;99.90
16118;DHT22;8163;50.118;5.342;2022-12-07T16:33:46;3.80;99.90
16118;DHT22;8163;50.118;5.342;2022-12-07T16:36:15;3.90;99.90
16118;DHT22;8163;50.118;5.342;2022-12-07T16:38:44;3.90;99.90
16118;DHT22;8163;50.118;5.342;2022-12-07T16:41:11;3.80;99.90
16118;DHT22;8163;50.118;5.342;2022-12-07T16:43:38;3.80;99.90
16118;DHT22;8163;50.118;5.342;2022-12-07T16:46:06;3.80;99.90
16118;DHT22;8163;50.118;5.342;2022-12-07T16:48:35;3.80;99.90
16118;DHT22;8163;50.118;5.342;2022-12-07T16:51:04;3.80;99.90
16118;DHT22;8163;50.118;5.342;2022-12-07T16:53:31;3.80;99.90
16118;DHT22;8163;50.118;5.342;2022-12-07T16:56:00;3.80;99.90
16118;DHT22;8163;50.118;5.342;2022-12-07T16:58:27;3.80;99.90
16118;DHT22;8163;50.118;5.342;2022-12-07T17:00:55;3.80;99.90
16118;DHT22;8163;50.118;5.342;2022-12-07T17:03:22;3.80;99.90
16118;DHT22;8163;50.118;5.342;2022-12-07T17:05:49;3.80;99.90
16118;DHT22;8163;50.118;5.342;2022-12-07T17:08:16;3.80;99.90
16118;DHT22;8163;50.118;5.342;2022-12-07T17:10:44;3.80;99.90
16118;DHT22;8163;50.118;5.342;2022-12-07T17:13:13;3.80;99.90
16118;DHT22;8163;50.118;5.342;2022-12-07T17:15:59;3.80;99.90
16118;DHT22;8163;50.118;5.342;2022-12-07T17:18:28;3.80;99.90